createdAt,value
2022-10-10T03:16:59.891Z,98842.97
2022-10-10T03:20:29.281Z,98837.59
2022-10-10T03:23:50.355Z,98835.03
2022-10-10T03:27:10.122Z,98832.78
2022-10-10T03:30:33.799Z,98837.88
2022-10-10T03:34:01.708Z,98846.38
2022-10-10T03:37:28.466Z,98841.78
2022-10-10T03:40:57.227Z,98838.03
2022-10-10T03:44:20.671Z,98840.56
2022-10-10T03:47:42.181Z,98837.88
2022-10-10T03:51:13.066Z,98832.94
2022-10-10T03:54:34.409Z,98841.78
2022-10-10T03:57:56.561Z,98832.66
2022-10-10T04:01:19.413Z,98829.06
2022-10-10T04:04:46.448Z,98834.44
2022-10-10T04:08:17.071Z,98837.59
2022-10-10T04:11:41.943Z,98842.66
2022-10-10T04:15:03.980Z,98842.66
2022-10-10T04:18:31.062Z,98838.47
2022-10-10T04:21:52.334Z,98850.44
2022-10-10T04:25:22.063Z,98853.72
2022-10-10T04:28:53.695Z,98846.69
2022-10-10T04:32:16.026Z,98843.69
2022-10-10T04:35:38.717Z,98838.78
2022-10-10T04:39:01.568Z,98836.97
2022-10-10T04:42:41.842Z,98841.47
2022-10-10T04:46:06.826Z,98843.41
2022-10-10T04:49:32.533Z,98842.66
2022-10-10T04:52:54.808Z,98851.94
2022-10-10T04:56:27.006Z,98847.13
2022-10-10T07:29:53.258Z,98901.19
2022-10-10T07:33:15.406Z,98906.41
2022-10-10T07:36:47.973Z,98906.00
2022-10-10T07:40:17.200Z,98903.00
2022-10-10T07:43:38.555Z,98896.75
2022-10-10T07:47:08.112Z,98891.72
2022-10-10T07:50:39.280Z,98894.44
2022-10-10T07:53:59.541Z,98891.34
2022-10-10T07:57:20.818Z,98896.09
2022-10-10T08:00:49.241Z,98902.09
2022-10-10T08:04:18.852Z,98898.56
2022-10-10T08:07:44.902Z,98896.84
2022-10-10T08:11:07.828Z,98905.72
2022-10-10T08:14:37.603Z,98893.63
2022-10-10T08:18:07.544Z,98887.41
2022-10-10T08:21:46.374Z,98889.16
2022-10-10T08:25:09.894Z,98881.97
2022-10-10T08:28:32.374Z,98872.44
2022-10-10T08:31:58.187Z,98876.06
2022-10-10T08:35:21.874Z,98883.00
2022-10-10T08:38:51.052Z,98877.00
2022-10-10T08:42:32.943Z,98885.34
2022-10-10T08:45:59.656Z,98877.34
2022-10-10T08:49:35.523Z,98876.66
2022-10-10T08:53:13.044Z,98869.75
2022-10-10T08:56:58.901Z,98861.03
2022-10-10T09:00:30.210Z,98859.44
2022-10-10T09:04:00.968Z,98857.81
2022-10-10T09:07:40.422Z,98849.00
2022-10-10T09:11:10.264Z,98853.59
2022-10-10T09:14:53.387Z,98859.06
2022-10-10T09:18:33.675Z,98852.97
2022-10-10T09:22:00.823Z,98845.09
2022-10-10T09:25:36.006Z,98834.78
2022-10-10T09:29:06.236Z,98840.84
2022-10-10T09:32:36.490Z,98830.47
2022-10-10T09:36:07.872Z,98829.84
2022-10-10T09:39:42.093Z,98821.94
2022-10-10T09:43:09.086Z,98811.69
2022-10-10T09:46:32.720Z,98799.31
2022-10-10T09:50:09.747Z,98794.03
2022-10-10T09:53:32.177Z,98792.81
2022-10-10T09:57:04.959Z,98802.88
2022-10-10T10:00:49.268Z,98795.97
2022-10-10T10:04:32.817Z,98794.94
2022-10-10T10:08:06.981Z,98797.94
2022-10-10T10:11:42.005Z,98790.19
2022-10-10T10:15:12.027Z,98789.59
2022-10-10T10:18:38.003Z,98786.72
2022-10-10T10:22:06.012Z,98801.63
2022-10-10T10:25:57.569Z,98795.50
2022-10-10T10:29:46.092Z,98799.25
2022-10-10T10:33:32.360Z,98801.50
2022-10-10T10:37:05.580Z,98801.84
2022-10-10T10:40:45.420Z,98811.09
2022-10-10T10:44:30.529Z,98806.88
2022-10-10T10:48:25.070Z,98816.63
2022-10-10T10:52:05.933Z,98827.66
2022-10-10T10:55:43.380Z,98828.53
2022-10-10T11:00:17.238Z,98827.56
2022-10-10T11:05:21.126Z,98821.13
2022-10-10T11:07:25.245Z,98833.81
2022-10-10T11:11:07.408Z,98830.75
2022-10-10T11:14:47.713Z,98826.53
2022-10-10T11:18:29.035Z,98810.09
2022-10-10T11:22:02.361Z,98806.00
2022-10-10T11:25:32.943Z,98812.13
2022-10-10T11:29:03.940Z,98810.47
2022-10-10T11:32:47.802Z,98807.84
2022-10-10T11:36:25.732Z,98820.81
2022-10-10T11:40:00.385Z,98813.84
2022-10-10T11:43:35.628Z,98802.63
2022-10-10T11:47:10.153Z,98816.47
2022-10-10T11:50:41.821Z,98809.56
2022-10-10T11:54:18.108Z,98803.38
2022-10-10T11:57:53.795Z,98810.22
2022-10-10T12:01:28.057Z,98814.06
2022-10-10T12:04:58.036Z,98806.38
2022-10-10T12:08:29.164Z,98800.34
2022-10-10T12:15:59.462Z,98809.34
2022-10-10T12:19:32.959Z,98801.16
2022-10-10T12:22:58.224Z,98805.03
2022-10-10T12:26:35.862Z,98790.03
2022-10-10T12:30:40.624Z,98798.41
2022-10-10T12:34:19.169Z,98802.19
2022-10-10T12:37:45.369Z,98794.28
2022-10-10T12:41:27.967Z,98797.13
2022-10-10T12:45:00.598Z,98796.78
2022-10-10T12:48:41.048Z,98791.50
2022-10-10T12:52:16.190Z,98787.25
2022-10-10T12:55:43.968Z,98787.69
2022-10-10T12:59:14.119Z,98783.00
2022-10-10T13:02:43.291Z,98779.66
2022-10-10T13:06:21.444Z,98777.44
2022-10-10T13:09:50.290Z,98782.41
2022-10-10T13:13:16.999Z,98777.81
2022-10-10T13:16:47.995Z,98782.59
2022-10-10T13:20:19.570Z,98783.38
2022-10-10T13:27:49.162Z,98788.78
2022-10-10T13:31:16.837Z,98793.34
2022-10-10T13:34:46.406Z,98791.25
2022-10-10T13:38:17.573Z,98795.97
2022-10-10T13:42:00.376Z,98791.78
2022-10-10T13:45:44.316Z,98792.50
2022-10-10T13:49:10.192Z,98793.06
2022-10-10T13:52:39.867Z,98800.25
2022-10-10T13:56:09.753Z,98800.09
2022-10-10T13:59:47.292Z,98794.88
2022-10-10T14:03:08.417Z,98800.91
2022-10-10T14:06:41.269Z,98793.94
2022-10-10T14:10:12.174Z,98794.88
2022-10-10T14:13:37.985Z,98797.63
2022-10-10T14:17:31.702Z,98803.63
2022-10-10T14:20:56.508Z,98803.72
2022-10-10T14:24:23.371Z,98799.63
2022-10-10T14:27:46.153Z,98795.13
2022-10-10T14:31:13.321Z,98785.31
2022-10-10T14:34:46.025Z,98790.59
2022-10-10T14:38:09.918Z,98795.03
2022-10-10T14:41:31.709Z,98786.28
2022-10-10T14:45:05.931Z,98789.69
2022-10-10T14:48:41.000Z,98785.97
2022-10-10T14:52:11.326Z,98789.16
2022-10-10T14:55:38.489Z,98790.50
2022-10-10T14:59:02.973Z,98788.38
2022-10-10T15:02:34.155Z,98783.66
2022-10-10T15:06:05.347Z,98789.25
2022-10-10T15:09:57.685Z,98782.81
2022-10-10T15:13:27.735Z,98797.13
2022-10-10T15:16:53.444Z,98787.16
2022-10-10T15:20:25.295Z,98789.25
2022-10-10T15:27:28.346Z,98799.44
2022-10-10T15:30:52.957Z,98805.69
2022-10-10T15:34:17.906Z,98800.69
2022-10-10T15:37:49.295Z,98814.13
2022-10-10T15:41:15.365Z,98815.34
2022-10-10T15:44:49.094Z,98822.44
2022-10-10T15:48:17.620Z,98825.66
2022-10-10T15:51:45.028Z,98814.97
2022-10-10T15:55:08.485Z,98816.44
2022-10-10T15:58:34.387Z,98813.59
2022-10-10T16:02:08.331Z,98820.72
2022-10-10T16:05:42.105Z,98827.47
2022-10-10T16:09:26.717Z,98831.69
2022-10-10T16:12:54.177Z,98836.03
2022-10-10T16:16:30.556Z,98835.41
2022-10-10T16:20:02.161Z,98841.78
2022-10-10T16:23:28.979Z,98845.88
2022-10-10T16:26:50.680Z,98849.94
2022-10-10T16:30:17.697Z,98856.31
2022-10-10T16:33:37.152Z,98879.22
2022-10-10T16:37:19.891Z,98897.06
2022-10-10T16:40:59.876Z,98894.66
2022-10-10T16:44:20.967Z,98913.16
2022-10-10T16:47:44.816Z,98917.88
2022-10-10T16:51:17.120Z,98930.97
2022-10-10T16:54:51.792Z,98924.00
2022-10-10T16:58:28.421Z,98908.03
2022-10-10T17:01:55.087Z,98892.66
2022-10-10T17:05:28.019Z,98911.97
2022-10-10T17:08:59.230Z,98921.22
2022-10-10T17:12:28.625Z,98922.03
2022-10-10T17:16:21.829Z,98930.28
2022-10-10T17:19:41.113Z,98940.53
2022-10-10T17:23:06.348Z,98937.06
2022-10-10T17:26:38.484Z,98934.47
2022-10-10T17:30:06.382Z,98949.06
2022-10-10T17:33:32.055Z,98941.91
2022-10-10T17:37:02.425Z,98956.47
2022-10-10T17:40:30.492Z,98956.16
2022-10-10T17:43:53.696Z,98950.78
2022-10-10T17:47:36.436Z,98957.56
2022-10-10T17:51:12.296Z,98954.97
2022-10-10T17:54:38.356Z,98974.81
2022-10-10T17:58:02.648Z,98976.34
2022-10-10T18:01:31.361Z,99001.28
2022-10-10T18:05:28.974Z,98970.75
2022-10-10T18:09:03.109Z,98977.16
2022-10-10T18:12:27.663Z,98974.09
2022-10-10T18:16:06.132Z,98986.63
2022-10-10T18:19:38.237Z,98988.44
2022-10-10T18:26:42.249Z,99005.03
2022-10-10T18:30:06.881Z,99010.38
2022-10-10T18:33:32.814Z,99029.16
2022-10-10T18:37:05.826Z,99028.56
2022-10-10T18:40:50.398Z,99040.53
2022-10-10T18:48:00.754Z,99039.81
2022-10-10T18:51:50.596Z,99036.53
2022-10-10T18:55:16.772Z,99037.53
2022-10-10T18:58:52.161Z,99032.25
2022-10-10T19:02:15.272Z,99040.94
2022-10-10T19:05:45.282Z,99044.09
2022-10-10T19:09:10.394Z,99056.16
2022-10-10T19:12:38.036Z,99047.47
2022-10-10T19:16:11.983Z,99049.28
2022-10-10T19:19:41.359Z,99064.59
2022-10-10T19:23:10.016Z,99074.97
2022-10-10T19:26:33.890Z,99080.13
2022-10-10T19:30:00.537Z,99085.31
2022-10-10T19:33:30.915Z,99091.31
2022-10-10T19:36:57.765Z,99086.94
2022-10-10T19:40:34.569Z,99095.50
2022-10-10T19:44:01.515Z,99088.56
2022-10-10T19:47:31.867Z,99114.44
2022-10-10T19:51:23.954Z,99113.22
2022-10-10T19:55:00.812Z,99134.75
2022-10-10T19:58:30.198Z,99125.81
2022-10-10T20:02:10.829Z,99129.72
2022-10-10T20:05:44.641Z,99139.19
2022-10-10T20:09:18.811Z,99139.91
2022-10-10T20:12:49.883Z,99138.97
